createdAt,value
2019-03-22T00:00:26.971Z,76.54
2019-03-22T00:02:55.743Z,76.94
2019-03-22T00:05:24.594Z,78.06
2019-03-22T00:07:53.470Z,78.54
2019-03-22T00:10:22.205Z,79.11
2019-03-22T00:12:50.928Z,79.12
2019-03-22T00:15:19.907Z,78.99
2019-03-22T00:17:48.634Z,78.48
2019-03-22T00:20:17.356Z,77.97
2019-03-22T00:22:46.219Z,78.06
2019-03-22T00:25:14.959Z,77.96
2019-03-22T00:27:43.682Z,77.79
2019-03-22T00:30:13.054Z,77.53
2019-03-22T00:32:41.781Z,77.26
2019-03-22T00:35:10.800Z,77.44
2019-03-22T00:37:39.696Z,77.39
2019-03-22T00:40:09.823Z,78.13
2019-03-22T00:42:38.538Z,78.61
2019-03-22T00:45:09.417Z,78.88
2019-03-22T00:47:38.214Z,78.93
2019-03-22T00:50:08.235Z,79.27
2019-03-22T00:52:37.017Z,79.23
2019-03-22T00:55:06.348Z,79.18
2019-03-22T00:57:35.067Z,79.37
2019-03-22T01:00:05.418Z,79.88
2019-03-22T01:02:34.142Z,79.90
2019-03-22T01:05:02.866Z,79.76
2019-03-22T01:07:31.663Z,79.66
2019-03-22T01:10:00.396Z,79.74
2019-03-22T01:12:29.110Z,80.43
2019-03-22T01:14:58.066Z,80.75
2019-03-22T01:17:26.798Z,81.21
2019-03-22T01:19:55.520Z,81.19
2019-03-22T01:22:24.437Z,81.01
2019-03-22T01:24:53.154Z,80.49
2019-03-22T01:27:21.876Z,80.47
2019-03-22T01:29:50.729Z,80.64
2019-03-22T01:32:19.456Z,80.83
2019-03-22T01:34:48.183Z,81.01
2019-03-22T01:37:17.155Z,81.43
2019-03-22T01:39:45.885Z,81.67
2019-03-22T01:42:14.607Z,81.73
2019-03-22T01:44:43.609Z,81.61
2019-03-22T01:47:12.332Z,81.20
2019-03-22T01:49:41.065Z,80.56
2019-03-22T01:52:09.862Z,80.18
2019-03-22T01:54:38.585Z,80.02
2019-03-22T01:57:07.315Z,79.38
2019-03-22T01:59:36.158Z,79.00
2019-03-22T02:02:04.884Z,78.95
2019-03-22T02:04:33.605Z,78.80
2019-03-22T02:07:02.384Z,79.75
2019-03-22T02:09:31.111Z,80.40
2019-03-22T02:11:59.846Z,81.73
2019-03-22T02:14:28.741Z,82.20
2019-03-22T02:16:57.477Z,82.91
2019-03-22T02:19:26.205Z,83.92
2019-03-22T02:21:55.007Z,84.63
2019-03-22T02:24:23.728Z,84.15
2019-03-22T02:26:52.457Z,84.62
2019-03-22T02:29:21.330Z,84.70
2019-03-22T02:31:50.063Z,85.05
2019-03-22T02:34:18.786Z,85.15
2019-03-22T02:36:47.565Z,86.50
2019-03-22T02:39:16.302Z,86.56
2019-03-22T02:41:45.092Z,86.10
2019-03-22T02:44:13.945Z,86.52
2019-03-22T02:46:42.673Z,86.89
2019-03-22T02:49:11.402Z,86.49
2019-03-22T02:51:40.271Z,86.80
2019-03-22T02:54:09.002Z,86.79
2019-03-22T02:56:37.724Z,86.90
2019-03-22T02:59:06.572Z,86.61
2019-03-22T03:01:35.287Z,86.73
2019-03-22T03:04:04.219Z,86.67
2019-03-22T03:06:32.987Z,85.88
2019-03-22T03:09:01.710Z,85.74
2019-03-22T03:11:30.465Z,86.21
2019-03-22T03:13:59.221Z,86.38
2019-03-22T03:16:27.950Z,86.77
2019-03-22T03:18:56.682Z,87.06
2019-03-22T03:21:25.538Z,87.05
2019-03-22T03:23:54.259Z,87.10
2019-03-22T03:26:22.987Z,87.22
2019-03-22T03:28:51.837Z,87.38
2019-03-22T03:31:20.557Z,87.09
2019-03-22T03:33:49.313Z,85.96
2019-03-22T03:36:18.075Z,84.70
2019-03-22T03:38:46.837Z,83.25
2019-03-22T03:41:15.598Z,82.01
2019-03-22T03:43:44.494Z,80.75
2019-03-22T03:46:13.215Z,79.03
2019-03-22T03:48:41.932Z,79.00
2019-03-22T03:51:10.720Z,78.81
2019-03-22T03:53:39.449Z,79.09
2019-03-22T03:56:08.184Z,78.90
2019-03-22T03:58:51.220Z,78.70
2019-03-22T04:01:07.411Z,78.63
2019-03-22T04:03:36.136Z,78.05
2019-03-22T04:06:04.995Z,77.47
2019-03-22T04:08:33.734Z,77.67
2019-03-22T04:11:02.461Z,78.12
2019-03-22T04:13:31.334Z,77.72
2019-03-22T04:16:00.058Z,77.41
2019-03-22T04:18:28.782Z,77.46
2019-03-22T04:20:57.583Z,77.31
2019-03-22T04:23:26.318Z,77.95
2019-03-22T04:25:55.034Z,78.67
2019-03-22T04:28:23.950Z,79.51
2019-03-22T04:30:52.687Z,80.11
2019-03-22T04:33:21.415Z,80.67
2019-03-22T04:35:52.121Z,80.91
2019-03-22T04:38:21.987Z,81.17
2019-03-22T04:40:50.727Z,80.66
2019-03-22T04:43:19.744Z,80.86
2019-03-22T04:45:49.673Z,81.16
2019-03-22T04:48:21.309Z,82.01
2019-03-22T04:50:51.871Z,82.46
2019-03-22T04:53:23.506Z,83.24
2019-03-22T04:55:55.146Z,83.33
2019-03-22T04:58:25.023Z,82.75
2019-03-22T05:00:56.267Z,82.88
2019-03-22T05:03:27.201Z,82.75
2019-03-22T05:05:58.999Z,82.85
2019-03-22T05:08:30.635Z,82.86
2019-03-22T05:11:02.367Z,82.99
2019-03-22T05:13:33.259Z,81.17
2019-03-22T05:16:03.168Z,80.79
2019-03-22T05:18:33.495Z,80.48
2019-03-22T05:21:03.584Z,80.30
2019-03-22T05:23:33.807Z,81.04
2019-03-22T05:26:04.638Z,80.60
2019-03-22T05:28:34.117Z,80.18
2019-03-22T05:31:17.676Z,79.62
2019-03-22T05:33:46.546Z,79.18
2019-03-22T05:36:15.281Z,78.63
2019-03-22T05:38:44.013Z,78.11
2019-03-22T05:41:13.866Z,77.50
2019-03-22T05:43:42.680Z,76.89
2019-03-22T05:46:11.398Z,76.94
2019-03-22T05:48:40.256Z,76.52
2019-03-22T05:51:08.983Z,77.04
2019-03-22T05:53:37.713Z,77.17
2019-03-22T05:56:06.612Z,76.31
2019-03-22T05:58:35.352Z,77.01
2019-03-22T06:01:04.085Z,76.32
2019-03-22T06:03:32.935Z,77.13
2019-03-22T06:06:02.019Z,77.31
2019-03-22T06:08:30.754Z,76.31
2019-03-22T06:10:59.519Z,77.01
2019-03-22T06:13:28.245Z,78.09
2019-03-22T06:15:56.978Z,77.67
2019-03-22T06:18:25.848Z,76.72
2019-03-22T06:20:54.570Z,77.27
2019-03-22T06:23:23.294Z,78.03
2019-03-22T06:25:52.059Z,76.91
2019-03-22T06:28:20.786Z,75.24
2019-03-22T06:30:49.713Z,74.62
2019-03-22T06:33:18.602Z,73.10
2019-03-22T06:35:47.390Z,72.30
2019-03-22T06:38:16.143Z,71.58
2019-03-22T06:40:44.988Z,70.11
2019-03-22T06:43:13.727Z,71.48
2019-03-22T06:45:42.449Z,69.78
2019-03-22T06:48:11.225Z,69.35
2019-03-22T06:50:39.949Z,68.74
2019-03-22T06:53:08.779Z,67.18
2019-03-22T06:55:37.555Z,66.66
2019-03-22T06:58:06.281Z,64.11
2019-03-22T07:00:35.018Z,62.98
2019-03-22T07:03:03.795Z,61.32
2019-03-22T07:05:32.519Z,57.06
2019-03-22T07:08:01.250Z,51.64
2019-03-22T07:10:30.270Z,53.08
2019-03-22T07:12:59.007Z,55.41
2019-03-22T07:15:27.736Z,53.93
2019-03-22T07:17:56.507Z,55.03
2019-03-22T07:20:25.249Z,54.21
2019-03-22T07:22:53.977Z,55.04
2019-03-22T07:25:22.991Z,54.72
2019-03-22T07:27:51.716Z,52.67
2019-03-22T07:30:20.645Z,56.28
2019-03-22T07:32:49.493Z,52.84
2019-03-22T07:35:18.217Z,52.64
2019-03-22T07:37:46.941Z,53.72
2019-03-22T07:40:15.723Z,53.81
2019-03-22T07:42:44.444Z,52.49
2019-03-22T07:45:13.264Z,53.11
2019-03-22T07:47:42.124Z,52.67
2019-03-22T07:50:12.939Z,52.56
2019-03-22T07:52:41.666Z,50.43
2019-03-22T07:55:10.708Z,50.24
2019-03-22T07:57:39.423Z,50.44
2019-03-22T08:00:13.385Z,51.34
2019-03-22T08:02:42.237Z,51.15
2019-03-22T08:05:11.064Z,49.97
2019-03-22T08:07:39.794Z,50.04
2019-03-22T08:10:09.703Z,51.30
2019-03-22T08:12:38.408Z,52.01
2019-03-22T08:15:08.805Z,51.12
2019-03-22T08:17:37.778Z,52.77
2019-03-22T08:20:07.382Z,50.45
2019-03-22T08:22:36.158Z,48.72
2019-03-22T08:25:05.321Z,46.77
2019-03-22T08:27:34.049Z,48.97
2019-03-22T08:30:02.790Z,47.61
2019-03-22T08:32:31.576Z,50.05
2019-03-22T08:35:00.338Z,49.55
2019-03-22T08:37:29.118Z,53.21
2019-03-22T08:39:57.993Z,50.00
2019-03-22T08:42:26.727Z,46.77
2019-03-22T08:44:55.463Z,48.94
2019-03-22T08:47:34.023Z,48.23
2019-03-22T08:49:54.667Z,46.72
2019-03-22T08:52:23.438Z,48.26
2019-03-22T08:54:52.199Z,48.64
2019-03-22T08:57:20.932Z,50.58
2019-03-22T08:59:49.645Z,50.85
2019-03-22T09:02:18.437Z,50.70
2019-03-22T09:04:47.125Z,49.06
2019-03-22T09:07:15.856Z,49.28
2019-03-22T09:09:44.758Z,49.44
2019-03-22T09:12:13.494Z,51.17
2019-03-22T09:14:42.311Z,49.24
2019-03-22T09:17:11.116Z,48.32
2019-03-22T09:19:39.918Z,50.16
2019-03-22T09:22:08.701Z,48.14
2019-03-22T09:24:39.368Z,50.35
2019-03-22T09:27:08.077Z,48.19
2019-03-22T09:29:36.795Z,47.42
2019-03-22T09:32:05.625Z,47.29
2019-03-22T09:34:34.426Z,47.93
2019-03-22T09:37:03.157Z,47.06
2019-03-22T09:39:31.900Z,49.55
2019-03-22T09:42:00.622Z,48.02
2019-03-22T09:44:42.407Z,48.68
2019-03-22T09:46:59.902Z,47.43
2019-03-22T09:49:28.605Z,47.82
2019-03-22T09:51:57.363Z,45.53
2019-03-22T09:54:26.346Z,46.47
2019-03-22T09:56:55.122Z,44.07
2019-03-22T09:59:23.827Z,42.90
2019-03-22T10:01:52.701Z,45.11
2019-03-22T10:04:21.433Z,45.88
2019-03-22T10:06:50.131Z,44.40
2019-03-22T10:09:19.118Z,44.43
2019-03-22T10:11:47.867Z,42.95
2019-03-22T10:14:16.579Z,41.31
2019-03-22T10:16:47.615Z,40.23
2019-03-22T10:19:15.964Z,41.85
2019-03-22T10:21:44.847Z,41.58
2019-03-22T10:24:13.652Z,42.53
2019-03-22T10:26:42.445Z,43.59
2019-03-22T10:29:11.176Z,42.79
2019-03-22T10:31:39.981Z,43.27
2019-03-22T10:34:08.787Z,42.20
2019-03-22T10:36:37.543Z,40.12
2019-03-22T10:39:08.828Z,39.75
2019-03-22T10:41:37.544Z,38.83
2019-03-22T10:44:06.370Z,39.19
2019-03-22T10:46:35.331Z,40.73
2019-03-22T10:49:04.212Z,39.93
2019-03-22T10:51:32.967Z,41.13
2019-03-22T10:54:01.856Z,42.05
2019-03-22T10:56:30.616Z,41.78
2019-03-22T10:58:59.346Z,39.18
2019-03-22T11:01:28.227Z,41.58
2019-03-22T11:03:57.060Z,37.06
2019-03-22T11:06:26.723Z,38.70
2019-03-22T11:08:55.907Z,39.61
2019-03-22T11:11:24.634Z,38.65
2019-03-22T11:13:53.448Z,37.88
2019-03-22T11:16:22.212Z,36.86
2019-03-22T11:18:50.942Z,36.81
2019-03-22T11:21:19.669Z,36.11
2019-03-22T11:23:48.523Z,35.44
2019-03-22T11:26:17.251Z,38.12
2019-03-22T11:28:45.973Z,36.55
2019-03-22T11:31:14.832Z,36.28
2019-03-22T11:33:43.561Z,36.56
2019-03-22T11:36:12.289Z,35.83
2019-03-22T11:38:41.058Z,35.47
2019-03-22T11:41:09.769Z,35.69
2019-03-22T11:43:38.487Z,36.46
2019-03-22T11:46:07.487Z,38.74
2019-03-22T11:48:36.209Z,36.62
2019-03-22T11:51:05.531Z,37.86
2019-03-22T11:53:34.573Z,39.98
2019-03-22T11:56:03.302Z,37.45
2019-03-22T11:58:32.019Z,40.35
2019-03-22T12:01:00.883Z,36.31
2019-03-22T12:03:29.618Z,36.63
2019-03-22T12:05:58.338Z,37.17
2019-03-22T12:08:27.224Z,38.51
2019-03-22T12:10:55.942Z,36.87
2019-03-22T12:13:24.783Z,35.26
2019-03-22T12:15:53.557Z,34.27
2019-03-22T12:18:22.275Z,35.42
2019-03-22T12:20:51.001Z,33.76
2019-03-22T12:23:19.856Z,34.99
2019-03-22T12:25:48.580Z,34.45
2019-03-22T12:28:17.303Z,34.72
2019-03-22T12:30:46.111Z,35.75
2019-03-22T12:33:14.830Z,35.89
2019-03-22T12:35:43.566Z,36.53
2019-03-22T12:38:12.419Z,36.46
2019-03-22T12:40:41.145Z,36.09
2019-03-22T12:43:09.882Z,35.76
2019-03-22T12:45:38.655Z,35.77
2019-03-22T12:48:07.359Z,35.89
2019-03-22T12:50:36.095Z,35.19
2019-03-22T12:53:05.167Z,35.80
2019-03-22T12:55:33.895Z,36.29
2019-03-22T12:58:02.614Z,36.67
2019-03-22T13:00:31.458Z,35.25
2019-03-22T13:03:00.184Z,36.93
2019-03-22T13:05:28.917Z,36.87
2019-03-22T13:07:57.720Z,35.60
2019-03-22T13:10:27.547Z,34.67
2019-03-22T13:12:56.564Z,35.52
2019-03-22T13:15:25.326Z,36.79
2019-03-22T13:17:54.056Z,36.45
2019-03-22T13:20:22.782Z,35.93
2019-03-22T13:22:51.663Z,35.58
2019-03-22T13:25:21.310Z,35.43
2019-03-22T13:27:50.202Z,35.40
2019-03-22T13:30:30.998Z,36.17
2019-03-22T13:32:59.946Z,36.82
2019-03-22T13:35:28.670Z,37.85
2019-03-22T13:37:57.545Z,36.02
2019-03-22T13:40:26.273Z,36.35
2019-03-22T13:42:54.999Z,36.01
2019-03-22T13:45:23.910Z,37.76
2019-03-22T13:47:52.628Z,36.75
2019-03-22T13:50:21.452Z,36.77
2019-03-22T13:52:50.259Z,36.81
2019-03-22T13:55:19.057Z,35.81
2019-03-22T13:57:47.781Z,35.41
2019-03-22T14:00:17.933Z,36.16
2019-03-22T14:02:46.656Z,35.74
2019-03-22T14:05:15.463Z,36.30
2019-03-22T14:07:44.407Z,36.64
2019-03-22T14:10:33.017Z,38.16
2019-03-22T14:13:03.235Z,39.88
2019-03-22T14:15:31.957Z,40.27
2019-03-22T14:18:00.994Z,40.47
2019-03-22T14:20:30.548Z,40.42
2019-03-22T14:22:59.286Z,41.23
2019-03-22T14:25:28.012Z,41.74
2019-03-22T14:27:56.897Z,40.38
2019-03-22T14:30:25.626Z,39.12
2019-03-22T14:32:58.115Z,38.75
2019-03-22T14:35:28.490Z,38.20
2019-03-22T14:37:57.474Z,36.92
2019-03-22T14:40:26.201Z,38.62
2019-03-22T14:42:54.984Z,37.62
2019-03-22T14:45:23.715Z,38.50
2019-03-22T14:47:52.439Z,39.72
2019-03-22T14:50:21.225Z,40.51
2019-03-22T14:52:49.957Z,41.50
2019-03-22T14:55:18.683Z,42.38
2019-03-22T14:57:49.943Z,42.79
2019-03-22T15:00:17.995Z,41.84
2019-03-22T15:02:46.712Z,43.25
2019-03-22T15:05:15.473Z,42.03
2019-03-22T15:07:44.195Z,42.54
2019-03-22T15:10:13.622Z,42.23
2019-03-22T15:12:42.393Z,42.21
2019-03-22T15:15:21.844Z,41.68
2019-03-22T15:18:04.534Z,40.08
2019-03-22T15:20:44.120Z,42.07
2019-03-22T15:23:26.816Z,41.73
2019-03-22T15:26:13.557Z,41.14
2019-03-22T15:28:43.951Z,39.66
2019-03-22T15:31:31.015Z,41.86
2019-03-22T15:34:04.866Z,42.94
2019-03-22T15:36:44.266Z,43.20
2019-03-22T15:39:17.715Z,44.10
2019-03-22T15:41:46.603Z,42.49
2019-03-22T15:44:15.409Z,44.62
2019-03-22T15:46:44.308Z,46.43
2019-03-22T15:49:13.035Z,45.47
2019-03-22T15:51:41.767Z,47.12
2019-03-22T15:54:10.656Z,46.27
2019-03-22T15:56:39.383Z,47.58
2019-03-22T15:59:08.119Z,46.49
2019-03-22T16:01:36.990Z,48.05
2019-03-22T16:04:05.729Z,48.71
2019-03-22T16:06:34.456Z,48.67
2019-03-22T16:09:04.936Z,49.28
2019-03-22T16:11:33.672Z,49.12
2019-03-22T16:14:02.400Z,49.78
2019-03-22T16:16:31.576Z,49.52
2019-03-22T16:19:00.304Z,50.04
2019-03-22T16:21:29.032Z,50.35
2019-03-22T16:23:58.493Z,51.49
2019-03-22T16:26:27.210Z,52.23
2019-03-22T16:28:55.939Z,52.24
2019-03-22T16:31:25.166Z,51.99
2019-03-22T16:33:54.700Z,52.29
2019-03-22T16:36:23.877Z,52.36
2019-03-22T16:38:52.824Z,52.98
2019-03-22T16:41:21.646Z,52.81
2019-03-22T16:43:50.460Z,53.09
2019-03-22T16:46:19.464Z,53.69
2019-03-22T16:48:48.299Z,54.17
2019-03-22T16:51:17.105Z,54.52
2019-03-22T16:53:46.167Z,55.00
2019-03-22T16:56:14.985Z,54.79
2019-03-22T16:58:44.907Z,55.00
2019-03-22T17:01:13.799Z,55.36
2019-03-22T17:03:42.606Z,54.87
2019-03-22T17:06:11.414Z,54.59
2019-03-22T17:08:43.031Z,54.62
2019-03-22T17:11:11.854Z,53.68
2019-03-22T17:13:41.761Z,53.33
2019-03-22T17:16:10.590Z,53.77
2019-03-22T17:18:39.413Z,54.09
2019-03-22T17:21:08.381Z,54.20
2019-03-22T17:23:37.194Z,55.11
2019-03-22T17:26:06.012Z,54.85
2019-03-22T17:28:35.230Z,54.90
2019-03-22T17:31:04.055Z,55.52
2019-03-22T17:33:32.871Z,56.24
2019-03-22T17:36:01.775Z,56.93
2019-03-22T17:38:30.591Z,58.02
2019-03-22T17:40:59.448Z,59.15
2019-03-22T17:43:28.441Z,59.43
2019-03-22T17:45:57.249Z,59.34
2019-03-22T17:48:26.062Z,59.19
2019-03-22T17:50:54.950Z,59.55
2019-03-22T17:53:23.779Z,59.23
2019-03-22T17:55:52.605Z,59.70
2019-03-22T17:58:21.731Z,59.85
2019-03-22T18:00:50.735Z,59.71
2019-03-22T18:03:19.553Z,60.13
2019-03-22T18:05:48.491Z,59.97
2019-03-22T18:08:17.313Z,60.23
2019-03-22T18:10:46.138Z,60.17
2019-03-22T18:13:15.115Z,60.19
2019-03-22T18:15:43.917Z,60.75
2019-03-22T18:18:12.726Z,60.91
2019-03-22T18:20:41.578Z,61.39
2019-03-22T18:23:10.390Z,61.61
2019-03-22T18:25:39.198Z,62.27
2019-03-22T18:28:08.168Z,62.84
2019-03-22T18:30:36.988Z,62.88
2019-03-22T18:33:05.801Z,62.81
2019-03-22T18:35:34.824Z,63.23
2019-03-22T18:38:03.631Z,63.58
2019-03-22T18:40:32.447Z,64.14
2019-03-22T18:43:01.808Z,64.20
2019-03-22T18:45:30.625Z,64.22
2019-03-22T18:47:59.434Z,64.51
2019-03-22T18:50:28.381Z,64.61
2019-03-22T18:52:57.206Z,65.02
2019-03-22T18:55:26.005Z,64.92
2019-03-22T18:57:55.071Z,64.58
2019-03-22T19:00:23.984Z,64.73
2019-03-22T19:02:52.819Z,64.68
2019-03-22T19:05:21.739Z,65.02
2019-03-22T19:07:50.561Z,64.76
2019-03-22T19:10:19.384Z,64.44
2019-03-22T19:12:48.605Z,64.51
2019-03-22T19:15:17.503Z,64.15
2019-03-22T19:17:46.322Z,64.04
2019-03-22T19:20:16.919Z,63.88
2019-03-22T19:22:45.734Z,63.41
2019-03-22T19:25:14.668Z,63.52
2019-03-22T19:27:43.598Z,64.41
2019-03-22T19:30:16.954Z,65.62
2019-03-22T19:32:51.526Z,66.30
2019-03-22T19:35:24.808Z,66.81
2019-03-22T19:37:58.706Z,67.55
2019-03-22T19:40:28.995Z,68.42
2019-03-22T19:42:57.804Z,69.11
2019-03-22T19:45:27.017Z,69.95
2019-03-22T19:47:55.835Z,69.95
2019-03-22T19:50:24.643Z,70.04
2019-03-22T19:52:53.525Z,70.58
2019-03-22T19:55:22.340Z,71.14
2019-03-22T19:57:51.147Z,71.03
2019-03-22T20:00:20.971Z,71.25
2019-03-22T20:02:49.798Z,71.36
2019-03-22T20:05:24.694Z,71.70
2019-03-22T20:07:53.488Z,72.11
2019-03-22T20:10:22.298Z,72.48
2019-03-22T20:12:51.271Z,72.31
2019-03-22T20:15:20.077Z,72.26
2019-03-22T20:17:48.875Z,72.57
2019-03-22T20:20:17.927Z,72.99
2019-03-22T20:22:46.740Z,73.72
2019-03-22T20:25:15.540Z,74.34
2019-03-22T20:27:44.413Z,74.56
2019-03-22T20:30:17.469Z,74.99
2019-03-22T20:32:46.272Z,75.51
2019-03-22T20:35:16.962Z,75.82
2019-03-22T20:37:45.890Z,76.02
2019-03-22T20:40:19.180Z,76.08
2019-03-22T20:42:48.359Z,75.88
2019-03-22T20:45:24.228Z,76.08
2019-03-22T20:47:48.143Z,75.55
2019-03-22T20:50:17.178Z,75.54
2019-03-22T20:52:45.993Z,74.73
2019-03-22T20:55:14.896Z,75.43
2019-03-22T20:57:44.690Z,76.38
2019-03-22T21:00:14.895Z,75.15
2019-03-22T21:02:43.709Z,75.41
2019-03-22T21:05:13.065Z,76.11
2019-03-22T21:07:41.893Z,76.29
2019-03-22T21:10:12.233Z,77.54
2019-03-22T21:12:41.566Z,77.87
2019-03-22T21:15:11.895Z,77.35
2019-03-22T21:17:40.625Z,77.16
2019-03-22T21:20:11.416Z,77.86
2019-03-22T21:22:40.144Z,78.83
2019-03-22T21:25:10.483Z,79.38
2019-03-22T21:27:39.677Z,79.65
2019-03-22T21:30:10.665Z,79.56
2019-03-22T21:32:45.523Z,79.29
2019-03-22T21:35:22.561Z,78.95
2019-03-22T21:37:44.552Z,78.41
2019-03-22T21:40:13.273Z,77.46
2019-03-22T21:42:42.148Z,76.85
2019-03-22T21:45:11.574Z,76.51
2019-03-22T21:47:40.406Z,76.71
2019-03-22T21:50:10.403Z,76.71
2019-03-22T21:52:39.144Z,76.96
2019-03-22T21:55:09.547Z,77.07
2019-03-22T21:57:38.783Z,77.58
2019-03-22T22:00:13.000Z,77.92
2019-03-22T22:02:41.729Z,78.83
2019-03-22T22:05:10.877Z,79.46
2019-03-22T22:07:39.609Z,79.96
2019-03-22T22:10:09.333Z,80.17
2019-03-22T22:12:38.391Z,80.49
2019-03-22T22:15:11.787Z,81.18
2019-03-22T22:17:41.479Z,81.62
2019-03-22T22:20:11.180Z,80.95
2019-03-22T22:22:40.593Z,80.49
2019-03-22T22:25:09.518Z,80.06
2019-03-22T22:27:38.333Z,79.92
2019-03-22T22:30:09.056Z,79.91
2019-03-22T22:32:37.779Z,80.10
2019-03-22T22:35:09.927Z,79.78
2019-03-22T22:37:38.662Z,79.66
2019-03-22T22:40:12.266Z,78.47
2019-03-22T22:42:41.507Z,78.43
2019-03-22T22:45:13.149Z,78.96
2019-03-22T22:47:41.974Z,78.64
2019-03-22T22:50:12.093Z,78.54
2019-03-22T22:52:44.465Z,78.62
2019-03-22T22:55:13.292Z,79.14
2019-03-22T22:57:42.147Z,79.52
2019-03-22T23:00:18.650Z,79.48
2019-03-22T23:02:47.759Z,79.71
2019-03-22T23:05:16.489Z,80.45
2019-03-22T23:07:45.227Z,81.09
2019-03-22T23:10:14.179Z,81.70
2019-03-22T23:12:43.783Z,82.48
2019-03-22T23:15:12.505Z,83.16
2019-03-22T23:17:41.471Z,83.37
2019-03-22T23:20:11.099Z,82.99
2019-03-22T23:22:39.819Z,82.31
2019-03-22T23:25:08.877Z,82.94
2019-03-22T23:27:38.009Z,84.36
2019-03-22T23:30:11.933Z,84.76
2019-03-22T23:32:41.727Z,85.25
2019-03-22T23:35:11.369Z,86.12
2019-03-22T23:37:40.092Z,86.53
2019-03-22T23:40:09.291Z,86.58
2019-03-22T23:42:38.013Z,86.61
2019-03-22T23:45:08.954Z,86.78
2019-03-22T23:47:37.800Z,86.37
2019-03-22T23:50:14.648Z,86.23
2019-03-22T23:52:43.500Z,85.83
2019-03-22T23:55:12.774Z,84.58
2019-03-22T23:57:41.494Z,82.88
